Time,TemperatureF,DewpointF,PressureIn,WindDirection,WindDirectionDegrees,WindSpeedMPH,WindSpeedGustMPH,Humidity,HourlyPrecipIn,Conditions,Clouds,dailyrainin,SolarRadiationWatts/m^2,SoftwareType,DateUTC
2013-02-24 00:11:00,31.0,24.0,-100.00,NE,36,3.0,7.0,74,-99.99,,,0.00,0.000000,,2013-02-24 08:11:00,
2013-02-24 00:22:00,31.0,24.0,-100.00,NE,36,3.0,7.0,74,-99.99,,,0.00,0.000000,,2013-02-24 08:22:00,
2013-02-24 00:31:00,31.0,24.0,-100.00,NE,36,3.0,7.0,74,-99.99,,,0.00,0.000000,,2013-02-24 08:31:00,
2013-02-24 00:41:00,31.0,24.0,-100.00,NE,36,3.0,7.0,74,-99.99,,,0.00,0.000000,,2013-02-24 08:41:00,
2013-02-24 01:11:00,33.0,23.0,-100.00,ESE,114,3.0,9.0,66,0.00,,,0.00,0.000000,,2013-02-24 09:11:00,
2013-02-24 01:21:00,33.0,23.0,-100.00,ESE,114,3.0,9.0,66,0.00,,,0.00,0.000000,,2013-02-24 09:21:00,
2013-02-24 01:31:00,33.0,23.0,-100.00,ESE,114,3.0,9.0,66,0.00,,,0.00,0.000000,,2013-02-24 09:31:00,
2013-02-24 01:41:00,33.0,23.0,-100.00,ESE,114,3.0,9.0,66,0.00,,,0.00,0.000000,,2013-02-24 09:41:00,
2013-02-24 01:51:00,33.0,23.0,-100.00,ESE,114,3.0,9.0,66,0.00,,,0.00,0.000000,,2013-02-24 09:51:00,
2013-02-24 02:11:00,30.0,21.0,-100.00,South,170,2.0,9.0,68,0.00,,,0.00,0.000000,,2013-02-24 10:11:00,
2013-02-24 02:21:00,30.0,21.0,-100.00,South,170,2.0,9.0,68,0.00,,,0.00,0.000000,,2013-02-24 10:21:00,
2013-02-24 02:31:00,30.0,21.0,-100.00,South,170,2.0,9.0,68,0.00,,,0.00,0.000000,,2013-02-24 10:31:00,
2013-02-24 02:41:00,30.0,21.0,-100.00,South,170,2.0,9.0,68,0.00,,,0.00,0.000000,,2013-02-24 10:41:00,
2013-02-24 02:51:00,30.0,21.0,-100.00,South,170,2.0,9.0,68,0.00,,,0.00,0.000000,,2013-02-24 10:51:00,
2013-02-24 02:52:00,26.0,19.0,-100.00,ENE,59,1.0,6.0,73,0.00,,,0.00,0.000000,,2013-02-24 10:52:00,
2013-02-24 03:11:00,26.0,19.0,-100.00,ENE,59,1.0,6.0,73,0.00,,,0.00,0.000000,,2013-02-24 11:11:00,
2013-02-24 03:21:00,26.0,19.0,-100.00,ENE,59,1.0,6.0,73,0.00,,,0.00,0.000000,,2013-02-24 11:21:00,
2013-02-24 03:32:00,26.0,19.0,-100.00,ENE,59,1.0,6.0,73,0.00,,,0.00,0.000000,,2013-02-24 11:32:00,
2013-02-24 03:41:00,26.0,19.0,-100.00,ENE,59,1.0,6.0,73,0.00,,,0.00,0.000000,,2013-02-24 11:41:00,
2013-02-24 03:52:00,30.0,19.0,-100.00,NNE,22,3.0,9.0,63,0.00,,,0.00,0.000000,,2013-02-24 11:52:00,
2013-02-24 04:11:00,30.0,19.0,-100.00,NNE,22,3.0,9.0,63,0.00,,,0.00,0.000000,,2013-02-24 12:11:00,
2013-02-24 04:21:00,30.0,19.0,-100.00,NNE,22,3.0,9.0,63,0.00,,,0.00,0.000000,,2013-02-24 12:21:00,
2013-02-24 04:32:00,30.0,19.0,-100.00,NNE,22,3.0,9.0,63,0.00,,,0.00,0.000000,,2013-02-24 12:32:00,
2013-02-24 04:46:00,30.0,19.0,-100.00,NNE,22,3.0,9.0,63,0.00,,,0.00,0.000000,,2013-02-24 12:46:00,
2013-02-24 05:15:00,30.0,15.0,-100.00,NE,41,3.0,12.0,54,0.00,,,0.00,0.000000,,2013-02-24 13:15:00,
2013-02-24 05:25:00,30.0,15.0,-100.00,NE,41,3.0,12.0,54,0.00,,,0.00,0.000000,,2013-02-24 13:25:00,
2013-02-24 05:33:00,30.0,15.0,-100.00,NE,41,3.0,12.0,54,0.00,,,0.00,0.000000,,2013-02-24 13:33:00,
2013-02-24 05:43:00,30.0,15.0,-100.00,NE,41,3.0,12.0,54,0.00,,,0.00,0.000000,,2013-02-24 13:43:00,
2013-02-24 05:51:00,30.0,15.0,-100.00,NE,41,3.0,12.0,54,0.00,,,0.00,0.000000,,2013-02-24 13:51:00,
2013-02-24 05:52:00,30.0,6.0,-100.00,NE,50,4.0,11.0,36,0.00,,,0.00,0.000000,,2013-02-24 13:52:00,
2013-02-24 06:23:00,30.0,6.0,-100.00,NE,50,4.0,11.0,36,0.00,,,0.00,0.000000,,2013-02-24 14:23:00,
2013-02-24 06:32:00,30.0,6.0,-100.00,NE,50,4.0,11.0,36,0.00,,,0.00,0.000000,,2013-02-24 14:32:00,
2013-02-24 06:43:00,30.0,6.0,-100.00,NE,50,4.0,11.0,36,0.00,,,0.00,0.000000,,2013-02-24 14:43:00,
2013-02-24 06:52:00,29.0,4.0,-100.00,NE,50,4.0,12.0,33,0.00,,,0.00,6.000000,,2013-02-24 14:52:00,
2013-02-24 07:22:00,29.0,4.0,-100.00,NE,50,4.0,12.0,33,0.00,,,0.00,6.000000,,2013-02-24 15:22:00,
2013-02-24 07:32:00,29.0,4.0,-100.00,NE,50,4.0,12.0,33,0.00,,,0.00,6.000000,,2013-02-24 15:32:00,
2013-02-24 07:42:00,29.0,4.0,-100.00,NE,50,4.0,12.0,33,0.00,,,0.00,6.000000,,2013-02-24 15:42:00,
2013-02-24 08:11:00,31.0,-1.0,-100.00,ENE,57,6.0,11.0,25,0.00,,,0.00,53.000000,,2013-02-24 16:11:00,
2013-02-24 08:21:00,31.0,-1.0,-100.00,ENE,57,6.0,11.0,25,0.00,,,0.00,53.000000,,2013-02-24 16:21:00,
2013-02-24 08:31:00,31.0,-1.0,-100.00,ENE,57,6.0,11.0,25,0.00,,,0.00,53.000000,,2013-02-24 16:31:00,
2013-02-24 08:41:00,31.0,-1.0,-100.00,ENE,57,6.0,11.0,25,0.00,,,0.00,53.000000,,2013-02-24 16:41:00,
2013-02-24 08:51:00,31.0,-1.0,-100.00,ENE,57,6.0,11.0,25,0.00,,,0.00,53.000000,,2013-02-24 16:51:00,
2013-02-24 08:52:00,38.0,1.0,-100.00,NE,55,5.0,16.0,20,0.00,,,0.00,319.000000,,2013-02-24 16:52:00,
2013-02-24 09:11:00,38.0,1.0,-100.00,NE,55,5.0,16.0,20,0.00,,,0.00,319.000000,,2013-02-24 17:11:00,
2013-02-24 09:21:00,38.0,1.0,-100.00,NE,55,5.0,16.0,20,0.00,,,0.00,319.000000,,2013-02-24 17:21:00,
2013-02-24 09:32:00,38.0,1.0,-100.00,NE,55,5.0,16.0,20,0.00,,,0.00,319.000000,,2013-02-24 17:32:00,
2013-02-24 09:41:00,38.0,1.0,-100.00,NE,55,5.0,16.0,20,0.00,,,0.00,319.000000,,2013-02-24 17:41:00,
2013-02-24 10:11:00,39.0,2.0,-100.00,ENE,69,5.0,13.0,21,0.00,,,0.00,605.000000,,2013-02-24 18:11:00,
2013-02-24 10:22:00,39.0,2.0,-100.00,ENE,69,5.0,13.0,21,0.00,,,0.00,605.000000,,2013-02-24 18:22:00,
2013-02-24 11:22:00,40.0,4.0,-100.00,ENE,63,5.0,14.0,22,0.00,,,0.00,757.000000,,2013-02-24 19:22:00,
2013-02-24 12:11:00,40.0,4.0,-100.00,NE,48,6.0,19.0,22,-99.99,,,0.00,847.000000,,2013-02-24 20:11:00,
2013-02-24 12:21:00,40.0,4.0,-100.00,NE,48,6.0,19.0,22,-99.99,,,0.00,847.000000,,2013-02-24 20:21:00,
2013-02-24 12:52:00,40.0,5.0,-100.00,NE,51,6.0,20.0,23,-99.99,,,0.00,866.000000,,2013-02-24 20:52:00,
2013-02-24 13:21:00,40.0,5.0,-100.00,NE,51,6.0,20.0,23,-99.99,,,0.00,866.000000,,2013-02-24 21:21:00,
2013-02-24 13:32:00,40.0,5.0,-100.00,NE,51,6.0,20.0,23,-99.99,,,0.00,866.000000,,2013-02-24 21:32:00,
2013-02-24 13:41:00,40.0,5.0,-100.00,NE,51,6.0,20.0,23,-99.99,,,0.00,866.000000,,2013-02-24 21:41:00,
2013-02-24 14:11:00,41.0,7.0,-100.00,ENE,67,6.0,17.0,24,0.00,,,0.00,814.000000,,2013-02-24 22:11:00,
2013-02-24 14:21:00,41.0,7.0,-100.00,ENE,67,6.0,17.0,24,0.00,,,0.00,814.000000,,2013-02-24 22:21:00,
2013-02-24 14:31:00,41.0,7.0,-100.00,ENE,67,6.0,17.0,24,0.00,,,0.00,814.000000,,2013-02-24 22:31:00,
2013-02-24 14:52:00,40.0,3.0,-100.00,ENE,68,7.0,18.0,21,0.00,,,0.00,691.000000,,2013-02-24 22:52:00,
2013-02-24 15:11:00,40.0,3.0,-100.00,ENE,68,7.0,18.0,21,0.00,,,0.00,691.000000,,2013-02-24 23:11:00,
2013-02-24 15:21:00,40.0,3.0,-100.00,ENE,68,7.0,18.0,21,0.00,,,0.00,691.000000,,2013-02-24 23:21:00,
2013-02-24 15:31:00,40.0,3.0,-100.00,ENE,68,7.0,18.0,21,0.00,,,0.00,691.000000,,2013-02-24 23:31:00,
2013-02-24 15:41:00,40.0,3.0,-100.00,ENE,68,7.0,18.0,21,0.00,,,0.00,691.000000,,2013-02-24 23:41:00,
2013-02-24 16:11:00,39.0,3.0,-100.00,NE,56,6.0,19.0,22,0.00,,,0.00,519.000000,,2013-02-25 00:11:00,
2013-02-24 16:21:00,39.0,3.0,-100.00,NE,56,6.0,19.0,22,0.00,,,0.00,519.000000,,2013-02-25 00:21:00,
2013-02-24 16:31:00,39.0,3.0,-100.00,NE,56,6.0,19.0,22,0.00,,,0.00,519.000000,,2013-02-25 00:31:00,
2013-02-24 16:41:00,39.0,3.0,-100.00,NE,56,6.0,19.0,22,0.00,,,0.00,519.000000,,2013-02-25 00:41:00,
2013-02-24 16:51:00,39.0,3.0,-100.00,NE,56,6.0,19.0,22,0.00,,,0.00,519.000000,,2013-02-25 00:51:00,
2013-02-24 17:11:00,35.0,2.0,-100.00,ENE,60,5.0,18.0,24,0.00,,,0.00,161.000000,,2013-02-25 01:11:00,
2013-02-24 17:21:00,35.0,2.0,-100.00,ENE,60,5.0,18.0,24,0.00,,,0.00,161.000000,,2013-02-25 01:21:00,
2013-02-24 17:31:00,35.0,2.0,-100.00,ENE,60,5.0,18.0,24,0.00,,,0.00,161.000000,,2013-02-25 01:31:00,
2013-02-24 17:42:00,35.0,2.0,-100.00,ENE,60,5.0,18.0,24,0.00,,,0.00,161.000000,,2013-02-25 01:42:00,
2013-02-24 17:51:00,35.0,2.0,-100.00,ENE,60,5.0,18.0,24,0.00,,,0.00,161.000000,,2013-02-25 01:51:00,
2013-02-24 18:11:00,33.0,-2.0,-100.00,ENE,58,5.0,20.0,22,0.00,,,0.00,12.000000,,2013-02-25 02:11:00,
2013-02-24 18:21:00,33.0,-2.0,-100.00,ENE,58,5.0,20.0,22,0.00,,,0.00,12.000000,,2013-02-25 02:21:00,
2013-02-24 18:31:00,33.0,-2.0,-100.00,ENE,58,5.0,20.0,22,0.00,,,0.00,12.000000,,2013-02-25 02:31:00,
2013-02-24 18:41:00,33.0,-2.0,-100.00,ENE,58,5.0,20.0,22,0.00,,,0.00,12.000000,,2013-02-25 02:41:00,
2013-02-24 18:51:00,33.0,-2.0,-100.00,ENE,58,5.0,20.0,22,0.00,,,0.00,12.000000,,2013-02-25 02:51:00,
2013-02-24 19:11:00,32.0,-2.0,-100.00,ENE,64,5.0,17.0,23,0.00,,,0.00,0.000000,,2013-02-25 03:11:00,
2013-02-24 19:21:00,32.0,-2.0,-100.00,ENE,64,5.0,17.0,23,0.00,,,0.00,0.000000,,2013-02-25 03:21:00,
2013-02-24 19:31:00,32.0,-2.0,-100.00,ENE,64,5.0,17.0,23,0.00,,,0.00,0.000000,,2013-02-25 03:31:00,
2013-02-24 19:41:00,32.0,-2.0,-100.00,ENE,64,5.0,17.0,23,0.00,,,0.00,0.000000,,2013-02-25 03:41:00,
2013-02-24 19:51:00,32.0,-2.0,-100.00,ENE,64,5.0,17.0,23,0.00,,,0.00,0.000000,,2013-02-25 03:51:00,
2013-02-24 20:21:00,32.0,-2.0,-100.00,NE,47,5.0,16.0,22,0.00,,,0.00,0.000000,,2013-02-25 04:21:00,
2013-02-24 20:31:00,32.0,-2.0,-100.00,NE,47,5.0,16.0,22,0.00,,,0.00,0.000000,,2013-02-25 04:31:00,
2013-02-24 20:41:00,32.0,-2.0,-100.00,NE,47,5.0,16.0,22,0.00,,,0.00,0.000000,,2013-02-25 04:41:00,
2013-02-24 20:51:00,32.0,-2.0,-100.00,NE,47,5.0,16.0,22,0.00,,,0.00,0.000000,,2013-02-25 04:51:00,
2013-02-24 20:52:00,32.0,-1.0,-100.00,ENE,68,4.0,14.0,24,0.00,,,0.00,0.000000,,2013-02-25 04:52:00,
2013-02-24 21:22:00,32.0,-1.0,-100.00,ENE,68,4.0,14.0,24,0.00,,,0.00,0.000000,,2013-02-25 05:22:00,
2013-02-24 21:31:00,32.0,-1.0,-100.00,ENE,68,4.0,14.0,24,0.00,,,0.00,0.000000,,2013-02-25 05:31:00,
2013-02-24 21:41:00,32.0,-1.0,-100.00,ENE,68,4.0,14.0,24,0.00,,,0.00,0.000000,,2013-02-25 05:41:00,
2013-02-24 22:11:00,32.0,-2.0,-100.00,NE,48,5.0,14.0,23,0.00,,,0.00,0.000000,,2013-02-25 06:11:00,
2013-02-24 22:21:00,32.0,-2.0,-100.00,NE,48,5.0,14.0,23,0.00,,,0.00,0.000000,,2013-02-25 06:21:00,
2013-02-24 22:31:00,32.0,-2.0,-100.00,NE,48,5.0,14.0,23,0.00,,,0.00,0.000000,,2013-02-25 06:31:00,
2013-02-24 22:41:00,32.0,-2.0,-100.00,NE,48,5.0,14.0,23,0.00,,,0.00,0.000000,,2013-02-25 06:41:00,
2013-02-24 22:51:00,32.0,-2.0,-100.00,NE,48,5.0,14.0,23,0.00,,,0.00,0.000000,,2013-02-25 06:51:00,
2013-02-24 23:11:00,32.0,-1.0,-100.00,NE,49,5.0,15.0,24,0.00,,,0.00,0.000000,,2013-02-25 07:11:00,
2013-02-24 23:21:00,32.0,-1.0,-100.00,NE,49,5.0,15.0,24,0.00,,,0.00,0.000000,,2013-02-25 07:21:00,
2013-02-24 23:31:00,32.0,-1.0,-100.00,NE,49,5.0,15.0,24,0.00,,,0.00,0.000000,,2013-02-25 07:31:00,
2013-02-24 23:41:00,32.0,-1.0,-100.00,NE,49,5.0,15.0,24,0.00,,,0.00,0.000000,,2013-02-25 07:41:00,
2013-02-24 23:51:00,32.0,-1.0,-100.00,NE,49,5.0,15.0,24,0.00,,,0.00,0.000000,,2013-02-25 07:51:00,
2013-02-24 23:52:00,32.0,-1.0,-100.00,NE,52,5.0,13.0,24,0.00,,,0.00,0.000000,,2013-02-25 07:52:00,